sensor_id;sensor_type;location;lat;lon;timestamp;pressure;altitude;pressure_sealevel;temperature;humidity
77106;BME280;66057;54.718;18.426;2023-01-31T00:01:56;99959.75;;;3.72;77.47
77106;BME280;66057;54.718;18.426;2023-01-31T00:04:22;99937.81;;;3.74;76.97
77106;BME280;66057;54.718;18.426;2023-01-31T00:06:48;99939.41;;;3.72;77.15
77106;BME280;66057;54.718;18.426;2023-01-31T00:09:16;99945.75;;;3.64;77.84
77106;BME280;66057;54.718;18.426;2023-01-31T00:11:42;99939.69;;;3.62;77.00
77106;BME280;66057;54.718;18.426;2023-01-31T00:14:08;99953.38;;;3.64;77.50
77106;BME280;66057;54.718;18.426;2023-01-31T00:16:35;99973.50;;;3.61;77.63
77106;BME280;66057;54.718;18.426;2023-01-31T00:19:01;99946.28;;;3.59;77.39
77106;BME280;66057;54.718;18.426;2023-01-31T00:21:28;99946.53;;;3.63;76.84
77106;BME280;66057;54.718;18.426;2023-01-31T00:23:55;99954.16;;;3.63;76.95
77106;BME280;66057;54.718;18.426;2023-01-31T00:28:53;99980.97;;;3.58;76.98
77106;BME280;66057;54.718;18.426;2023-01-31T00:31:20;99975.69;;;3.55;77.35
77106;BME280;66057;54.718;18.426;2023-01-31T00:33:46;99990.88;;;3.54;77.35
77106;BME280;66057;54.718;18.426;2023-01-31T00:36:15;100006.19;;;3.55;77.35
77106;BME280;66057;54.718;18.426;2023-01-31T00:38:41;99973.25;;;3.57;77.65
77106;BME280;66057;54.718;18.426;2023-01-31T00:41:07;99978.09;;;3.52;77.80
77106;BME280;66057;54.718;18.426;2023-01-31T00:43:33;100003.94;;;3.60;76.75
77106;BME280;66057;54.718;18.426;2023-01-31T00:46:00;99997.88;;;3.58;76.96
77106;BME280;66057;54.718;18.426;2023-01-31T00:48:26;99999.63;;;3.59;77.41
77106;BME280;66057;54.718;18.426;2023-01-31T00:50:52;100023.91;;;3.54;77.25
77106;BME280;66057;54.718;18.426;2023-01-31T00:53:19;100021.19;;;3.50;77.25
77106;BME280;66057;54.718;18.426;2023-01-31T00:55:52;100048.53;;;3.55;77.02
77106;BME280;66057;54.718;18.426;2023-01-31T00:58:18;100036.41;;;3.50;77.03
77106;BME280;66057;54.718;18.426;2023-01-31T01:00:44;100019.97;;;3.44;77.49
77106;BME280;66057;54.718;18.426;2023-01-31T01:03:10;100043.53;;;3.41;78.06
77106;BME280;66057;54.718;18.426;2023-01-31T01:05:36;100053.53;;;3.38;78.12
77106;BME280;66057;54.718;18.426;2023-01-31T01:08:02;100066.22;;;3.38;77.52
77106;BME280;66057;54.718;18.426;2023-01-31T01:10:28;100055.00;;;3.35;77.71
77106;BME280;66057;54.718;18.426;2023-01-31T01:12:53;100078.91;;;3.38;77.17
77106;BME280;66057;54.718;18.426;2023-01-31T01:15:19;100090.22;;;3.43;76.56
77106;BME280;66057;54.718;18.426;2023-01-31T01:17:45;100084.88;;;3.39;76.46
77106;BME280;66057;54.718;18.426;2023-01-31T01:20:11;100076.53;;;3.41;76.80
77106;BME280;66057;54.718;18.426;2023-01-31T01:22:36;100088.19;;;3.38;76.03
77106;BME280;66057;54.718;18.426;2023-01-31T01:25:03;100080.94;;;3.29;76.37
77106;BME280;66057;54.718;18.426;2023-01-31T01:27:29;100087.06;;;3.33;74.96
77106;BME280;66057;54.718;18.426;2023-01-31T01:29:55;100091.75;;;3.27;75.64
77106;BME280;66057;54.718;18.426;2023-01-31T01:32:22;100089.50;;;3.31;74.37
77106;BME280;66057;54.718;18.426;2023-01-31T01:34:48;100088.19;;;3.23;73.96
77106;BME280;66057;54.718;18.426;2023-01-31T01:37:13;100097.09;;;3.17;74.59
77106;BME280;66057;54.718;18.426;2023-01-31T01:39:46;100103.75;;;3.15;75.02
77106;BME280;66057;54.718;18.426;2023-01-31T01:42:18;100112.25;;;3.15;75.21
77106;BME280;66057;54.718;18.426;2023-01-31T01:44:50;100111.28;;;3.13;75.05
77106;BME280;66057;54.718;18.426;2023-01-31T01:47:43;100145.72;;;3.23;74.31
77106;BME280;66057;54.718;18.426;2023-01-31T01:50:24;100113.19;;;3.17;73.73
77106;BME280;66057;54.718;18.426;2023-01-31T01:52:59;100115.56;;;3.14;73.59
77106;BME280;66057;54.718;18.426;2023-01-31T01:55:37;100111.53;;;3.18;73.34
77106;BME280;66057;54.718;18.426;2023-01-31T01:58:32;100114.72;;;3.28;72.24
77106;BME280;66057;54.718;18.426;2023-01-31T02:01:03;100120.31;;;3.23;72.41
77106;BME280;66057;54.718;18.426;2023-01-31T02:03:29;100113.66;;;3.25;72.52
77106;BME280;66057;54.718;18.426;2023-01-31T02:05:58;100118.47;;;3.20;72.89
77106;BME280;66057;54.718;18.426;2023-01-31T02:08:29;100124.59;;;3.24;73.43
77106;BME280;66057;54.718;18.426;2023-01-31T02:11:17;100134.50;;;3.19;73.07
77106;BME280;66057;54.718;18.426;2023-01-31T02:13:46;100133.00;;;3.23;72.88
77106;BME280;66057;54.718;18.426;2023-01-31T02:16:14;100134.50;;;3.19;72.45
77106;BME280;66057;54.718;18.426;2023-01-31T02:18:39;100148.69;;;3.16;72.67
77106;BME280;66057;54.718;18.426;2023-01-31T02:33:19;100171.06;;;3.08;73.28
77106;BME280;66057;54.718;18.426;2023-01-31T02:35:57;100161.09;;;3.11;72.72
77106;BME280;66057;54.718;18.426;2023-01-31T02:39:02;100162.28;;;3.03;73.38
77106;BME280;66057;54.718;18.426;2023-01-31T02:41:35;100178.59;;;3.06;72.83
77106;BME280;66057;54.718;18.426;2023-01-31T02:47:14;100181.97;;;2.92;74.04
77106;BME280;66057;54.718;18.426;2023-01-31T02:49:50;100190.47;;;3.07;72.88
77106;BME280;66057;54.718;18.426;2023-01-31T02:57:48;100202.53;;;2.97;73.93
77106;BME280;66057;54.718;18.426;2023-01-31T03:00:15;100195.22;;;3.01;73.60
77106;BME280;66057;54.718;18.426;2023-01-31T03:02:41;100211.59;;;2.93;74.03
77106;BME280;66057;54.718;18.426;2023-01-31T03:05:13;100209.88;;;2.92;74.54
77106;BME280;66057;54.718;18.426;2023-01-31T03:07:41;100223.94;;;2.87;74.42
77106;BME280;66057;54.718;18.426;2023-01-31T03:10:18;100226.56;;;2.89;74.58
77106;BME280;66057;54.718;18.426;2023-01-31T03:13:16;100204.22;;;2.83;74.33
77106;BME280;66057;54.718;18.426;2023-01-31T03:19:08;100220.31;;;2.84;74.20
77106;BME280;66057;54.718;18.426;2023-01-31T03:21:54;100205.09;;;2.84;73.89
77106;BME280;66057;54.718;18.426;2023-01-31T03:24:21;100227.84;;;2.82;74.53
77106;BME280;66057;54.718;18.426;2023-01-31T03:26:53;100229.50;;;2.82;74.28
77106;BME280;66057;54.718;18.426;2023-01-31T03:29:20;100226.28;;;2.84;74.22
77106;BME280;66057;54.718;18.426;2023-01-31T03:31:52;100232.50;;;2.89;73.72
77106;BME280;66057;54.718;18.426;2023-01-31T03:34:19;100235.75;;;2.87;73.84
77106;BME280;66057;54.718;18.426;2023-01-31T03:39:23;100249.88;;;2.83;73.75
77106;BME280;66057;54.718;18.426;2023-01-31T03:42:00;100252.34;;;2.69;74.27
77106;BME280;66057;54.718;18.426;2023-01-31T03:44:51;100247.06;;;2.66;74.70
77106;BME280;66057;54.718;18.426;2023-01-31T03:47:25;100254.09;;;2.56;74.94
77106;BME280;66057;54.718;18.426;2023-01-31T03:49:54;100256.28;;;2.63;74.70
77106;BME280;66057;54.718;18.426;2023-01-31T03:52:26;100255.97;;;2.59;74.03
77106;BME280;66057;54.718;18.426;2023-01-31T03:55:01;100256.94;;;2.61;74.18
77106;BME280;66057;54.718;18.426;2023-01-31T03:57:32;100255.88;;;2.57;73.39
77106;BME280;66057;54.718;18.426;2023-01-31T03:59:59;100267.09;;;2.61;73.52
77106;BME280;66057;54.718;18.426;2023-01-31T04:02:33;100263.06;;;2.64;72.62
77106;BME280;66057;54.718;18.426;2023-01-31T04:07:29;100272.34;;;2.64;72.91
77106;BME280;66057;54.718;18.426;2023-01-31T04:09:55;100280.06;;;2.66;72.33
77106;BME280;66057;54.718;18.426;2023-01-31T04:12:21;100280.25;;;2.69;72.41
77106;BME280;66057;54.718;18.426;2023-01-31T04:14:46;100307.59;;;2.73;73.05
77106;BME280;66057;54.718;18.426;2023-01-31T04:17:12;100292.09;;;2.68;73.13
77106;BME280;66057;54.718;18.426;2023-01-31T04:19:37;100287.19;;;2.71;73.45
77106;BME280;66057;54.718;18.426;2023-01-31T04:22:03;100312.84;;;2.76;73.01
77106;BME280;66057;54.718;18.426;2023-01-31T04:24:29;100309.84;;;2.81;71.83
77106;BME280;66057;54.718;18.426;2023-01-31T04:26:55;100308.66;;;2.76;72.01
77106;BME280;66057;54.718;18.426;2023-01-31T04:29:20;100309.63;;;2.78;72.56
77106;BME280;66057;54.718;18.426;2023-01-31T04:31:46;100316.38;;;2.78;72.32
77106;BME280;66057;54.718;18.426;2023-01-31T04:34:11;100304.66;;;2.67;72.64
77106;BME280;66057;54.718;18.426;2023-01-31T04:36:37;100326.63;;;2.66;72.49
77106;BME280;66057;54.718;18.426;2023-01-31T04:39:03;100299.59;;;2.67;73.37
77106;BME280;66057;54.718;18.426;2023-01-31T04:41:29;100303.00;;;2.67;72.43
77106;BME280;66057;54.718;18.426;2023-01-31T04:43:54;100327.50;;;2.67;72.37
77106;BME280;66057;54.718;18.426;2023-01-31T04:46:20;100331.63;;;2.78;72.08
77106;BME280;66057;54.718;18.426;2023-01-31T04:48:46;100327.97;;;2.74;71.89
77106;BME280;66057;54.718;18.426;2023-01-31T04:51:12;100367.31;;;2.81;71.97
77106;BME280;66057;54.718;18.426;2023-01-31T04:53:37;100332.88;;;2.71;71.79
77106;BME280;66057;54.718;18.426;2023-01-31T04:56:03;100332.38;;;2.77;72.82
77106;BME280;66057;54.718;18.426;2023-01-31T04:58:30;100351.63;;;2.73;73.42
77106;BME280;66057;54.718;18.426;2023-01-31T05:00:56;100354.91;;;2.59;74.50
77106;BME280;66057;54.718;18.426;2023-01-31T05:03:22;100362.53;;;2.59;74.68
77106;BME280;66057;54.718;18.426;2023-01-31T05:05:49;100375.97;;;2.58;75.93
77106;BME280;66057;54.718;18.426;2023-01-31T05:08:14;100376.47;;;2.52;76.77
77106;BME280;66057;54.718;18.426;2023-01-31T05:10:40;100380.53;;;2.50;77.30
77106;BME280;66057;54.718;18.426;2023-01-31T05:13:08;100379.94;;;2.54;77.71
77106;BME280;66057;54.718;18.426;2023-01-31T05:15:34;100394.31;;;2.54;78.44
77106;BME280;66057;54.718;18.426;2023-01-31T05:17:59;100390.78;;;2.52;78.73
77106;BME280;66057;54.718;18.426;2023-01-31T05:20:29;100381.69;;;2.42;78.91
77106;BME280;66057;54.718;18.426;2023-01-31T05:22:56;100394.97;;;2.51;79.82
77106;BME280;66057;54.718;18.426;2023-01-31T05:25:23;100396.34;;;2.59;78.85
77106;BME280;66057;54.718;18.426;2023-01-31T05:27:49;100413.94;;;2.56;78.31
77106;BME280;66057;54.718;18.426;2023-01-31T05:30:16;100409.13;;;2.48;78.11
77106;BME280;66057;54.718;18.426;2023-01-31T05:32:41;100415.09;;;2.48;78.21
77106;BME280;66057;54.718;18.426;2023-01-31T05:35:11;100411.84;;;2.51;77.75
77106;BME280;66057;54.718;18.426;2023-01-31T05:37:37;100418.69;;;2.52;77.05
77106;BME280;66057;54.718;18.426;2023-01-31T05:40:12;100420.25;;;2.50;76.92
77106;BME280;66057;54.718;18.426;2023-01-31T05:42:38;100418.84;;;2.42;77.04
77106;BME280;66057;54.718;18.426;2023-01-31T05:45:05;100425.81;;;2.44;77.24
77106;BME280;66057;54.718;18.426;2023-01-31T05:47:31;100410.38;;;2.41;77.28
77106;BME280;66057;54.718;18.426;2023-01-31T05:49:56;100423.56;;;2.49;76.70
77106;BME280;66057;54.718;18.426;2023-01-31T05:52:22;100415.66;;;2.44;76.87
77106;BME280;66057;54.718;18.426;2023-01-31T05:54:48;100443.94;;;2.50;76.58
77106;BME280;66057;54.718;18.426;2023-01-31T05:57:13;100431.97;;;2.48;77.03
77106;BME280;66057;54.718;18.426;2023-01-31T05:59:41;100436.16;;;2.47;76.40
77106;BME280;66057;54.718;18.426;2023-01-31T06:02:07;100447.19;;;2.48;76.36
77106;BME280;66057;54.718;18.426;2023-01-31T06:04:36;100460.16;;;2.52;75.84
77106;BME280;66057;54.718;18.426;2023-01-31T06:07:03;100449.56;;;2.58;75.57
77106;BME280;66057;54.718;18.426;2023-01-31T06:09:29;100456.28;;;2.57;76.08
77106;BME280;66057;54.718;18.426;2023-01-31T06:11:54;100463.19;;;2.60;75.91
77106;BME280;66057;54.718;18.426;2023-01-31T06:14:20;100459.59;;;2.56;74.96
77106;BME280;66057;54.718;18.426;2023-01-31T06:16:46;100449.41;;;2.43;75.47
77106;BME280;66057;54.718;18.426;2023-01-31T06:19:12;100453.91;;;2.47;75.09
77106;BME280;66057;54.718;18.426;2023-01-31T06:21:37;100466.91;;;2.52;75.62
77106;BME280;66057;54.718;18.426;2023-01-31T06:24:03;100480.66;;;2.55;74.89
77106;BME280;66057;54.718;18.426;2023-01-31T06:26:29;100480.66;;;2.55;75.15
77106;BME280;66057;54.718;18.426;2023-01-31T06:28:55;100480.66;;;2.55;75.89
77106;BME280;66057;54.718;18.426;2023-01-31T06:31:20;100494.75;;;2.63;75.60
77106;BME280;66057;54.718;18.426;2023-01-31T06:33:46;100488.50;;;2.58;75.45
77106;BME280;66057;54.718;18.426;2023-01-31T06:36:11;100485.72;;;2.55;75.77
77106;BME280;66057;54.718;18.426;2023-01-31T06:38:37;100493.00;;;2.62;74.96
77106;BME280;66057;54.718;18.426;2023-01-31T06:41:03;100495.63;;;2.64;75.04
77106;BME280;66057;54.718;18.426;2023-01-31T06:43:29;100507.66;;;2.67;74.75
77106;BME280;66057;54.718;18.426;2023-01-31T06:45:54;100517.03;;;2.68;75.78
77106;BME280;66057;54.718;18.426;2023-01-31T06:48:21;100507.53;;;2.65;75.78
77106;BME280;66057;54.718;18.426;2023-01-31T06:50:46;100512.41;;;2.62;75.34
77106;BME280;66057;54.718;18.426;2023-01-31T06:53:12;100512.25;;;2.72;74.04
77106;BME280;66057;54.718;18.426;2023-01-31T06:55:38;100515.88;;;2.76;74.07
77106;BME280;66057;54.718;18.426;2023-01-31T06:58:04;100514.06;;;2.86;73.68
77106;BME280;66057;54.718;18.426;2023-01-31T07:00:29;100510.75;;;2.87;73.45
77106;BME280;66057;54.718;18.426;2023-01-31T07:02:55;100518.25;;;2.86;73.07
77106;BME280;66057;54.718;18.426;2023-01-31T07:05:22;100520.03;;;2.87;73.84
77106;BME280;66057;54.718;18.426;2023-01-31T07:07:48;100523.53;;;2.89;72.29
77106;BME280;66057;54.718;18.426;2023-01-31T07:10:15;100521.75;;;2.88;73.60
77106;BME280;66057;54.718;18.426;2023-01-31T07:12:41;100530.66;;;2.94;72.76
77106;BME280;66057;54.718;18.426;2023-01-31T07:15:08;100528.59;;;2.89;73.00
77106;BME280;66057;54.718;18.426;2023-01-31T07:17:34;100526.06;;;2.89;73.93
77106;BME280;66057;54.718;18.426;2023-01-31T07:20:00;100517.00;;;2.92;73.68
77106;BME280;66057;54.718;18.426;2023-01-31T07:22:26;100520.81;;;2.99;73.95
77106;BME280;66057;54.718;18.426;2023-01-31T07:24:51;100503.53;;;2.93;74.15
77106;BME280;66057;54.718;18.426;2023-01-31T07:27:18;100520.25;;;3.03;73.35
77106;BME280;66057;54.718;18.426;2023-01-31T07:29:43;100498.56;;;3.08;73.11
77106;BME280;66057;54.718;18.426;2023-01-31T07:32:10;100498.88;;;3.13;73.31
77106;BME280;66057;54.718;18.426;2023-01-31T07:34:36;100508.78;;;3.21;73.16
77106;BME280;66057;54.718;18.426;2023-01-31T07:37:02;100509.94;;;3.26;73.50
77106;BME280;66057;54.718;18.426;2023-01-31T07:39:28;100511.03;;;3.30;73.00
77106;BME280;66057;54.718;18.426;2023-01-31T07:41:54;100516.59;;;3.37;73.58
77106;BME280;66057;54.718;18.426;2023-01-31T07:44:20;100523.63;;;3.41;74.14
77106;BME280;66057;54.718;18.426;2023-01-31T07:46:46;100527.94;;;3.42;74.23
77106;BME280;66057;54.718;18.426;2023-01-31T07:49:11;100526.00;;;3.51;74.04
77106;BME280;66057;54.718;18.426;2023-01-31T07:51:37;100524.94;;;3.61;74.79
77106;BME280;66057;54.718;18.426;2023-01-31T07:54:08;100536.84;;;3.62;73.51
77106;BME280;66057;54.718;18.426;2023-01-31T07:56:34;100534.50;;;3.65;74.20
77106;BME280;66057;54.718;18.426;2023-01-31T07:58:59;100543.00;;;3.66;74.05
77106;BME280;66057;54.718;18.426;2023-01-31T08:01:26;100544.66;;;3.65;73.04
77106;BME280;66057;54.718;18.426;2023-01-31T08:04:13;100546.66;;;3.69;73.19
77106;BME280;66057;54.718;18.426;2023-01-31T08:06:40;100555.06;;;3.68;73.47
77106;BME280;66057;54.718;18.426;2023-01-31T08:09:06;100576.63;;;3.62;73.95
77106;BME280;66057;54.718;18.426;2023-01-31T08:11:32;100567.84;;;3.57;74.69
77106;BME280;66057;54.718;18.426;2023-01-31T08:13:58;100558.56;;;3.57;74.89
77106;BME280;66057;54.718;18.426;2023-01-31T08:16:24;100561.69;;;3.53;75.36
77106;BME280;66057;54.718;18.426;2023-01-31T08:18:51;100576.34;;;3.57;75.82
77106;BME280;66057;54.718;18.426;2023-01-31T08:21:17;100573.50;;;3.66;75.60
77106;BME280;66057;54.718;18.426;2023-01-31T08:23:44;100558.38;;;3.67;76.26
77106;BME280;66057;54.718;18.426;2023-01-31T08:26:17;100622.19;;;3.72;76.14
77106;BME280;66057;54.718;18.426;2023-01-31T08:28:45;100558.56;;;3.70;76.60
77106;BME280;66057;54.718;18.426;2023-01-31T08:31:14;100567.06;;;3.71;76.84
77106;BME280;66057;54.718;18.426;2023-01-31T08:33:40;100565.81;;;3.77;75.79
77106;BME280;66057;54.718;18.426;2023-01-31T08:36:29;100570.00;;;3.90;75.00
77106;BME280;66057;54.718;18.426;2023-01-31T08:38:56;100556.50;;;3.91;75.58
77106;BME280;66057;54.718;18.426;2023-01-31T08:41:23;100563.72;;;3.98;74.63
77106;BME280;66057;54.718;18.426;2023-01-31T08:43:49;100568.81;;;3.98;74.74
77106;BME280;66057;54.718;18.426;2023-01-31T08:46:16;100565.22;;;3.94;75.07
77106;BME280;66057;54.718;18.426;2023-01-31T08:48:42;100589.47;;;4.03;74.53
77106;BME280;66057;54.718;18.426;2023-01-31T08:51:10;100585.06;;;4.00;75.02
77106;BME280;66057;54.718;18.426;2023-01-31T08:53:41;100577.25;;;3.97;75.52
77106;BME280;66057;54.718;18.426;2023-01-31T08:56:12;100586.53;;;3.97;74.76
77106;BME280;66057;54.718;18.426;2023-01-31T08:58:40;100600.72;;;3.93;74.35
77106;BME280;66057;54.718;18.426;2023-01-31T09:01:08;100600.50;;;3.90;74.51
77106;BME280;66057;54.718;18.426;2023-01-31T09:03:35;100589.38;;;3.88;74.91
77106;BME280;66057;54.718;18.426;2023-01-31T09:06:03;100595.44;;;3.90;74.97
77106;BME280;66057;54.718;18.426;2023-01-31T09:08:29;100590.75;;;3.83;74.20
77106;BME280;66057;54.718;18.426;2023-01-31T09:10:56;100613.50;;;3.81;74.35
77106;BME280;66057;54.718;18.426;2023-01-31T09:13:25;100599.16;;;3.82;74.47
77106;BME280;66057;54.718;18.426;2023-01-31T09:15:58;100614.81;;;3.88;73.81
77106;BME280;66057;54.718;18.426;2023-01-31T09:18:24;100615.09;;;3.92;74.62
77106;BME280;66057;54.718;18.426;2023-01-31T09:20:50;100614.09;;;3.90;74.39
77106;BME280;66057;54.718;18.426;2023-01-31T09:23:16;100606.59;;;3.92;74.33
77106;BME280;66057;54.718;18.426;2023-01-31T09:25:50;100613.22;;;4.03;74.83
77106;BME280;66057;54.718;18.426;2023-01-31T09:28:16;100612.53;;;4.19;74.04
77106;BME280;66057;54.718;18.426;2023-01-31T09:30:42;100613.03;;;4.13;73.74
77106;BME280;66057;54.718;18.426;2023-01-31T09:33:08;100603.72;;;4.14;74.01
77106;BME280;66057;54.718;18.426;2023-01-31T09:35:34;100596.22;;;4.15;73.57
77106;BME280;66057;54.718;18.426;2023-01-31T09:37:59;100612.94;;;4.25;73.25
77106;BME280;66057;54.718;18.426;2023-01-31T09:40:27;100595.59;;;4.32;73.67
77106;BME280;66057;54.718;18.426;2023-01-31T09:42:57;100611.44;;;4.55;72.77
77106;BME280;66057;54.718;18.426;2023-01-31T09:45:30;100613.75;;;4.52;71.51
77106;BME280;66057;54.718;18.426;2023-01-31T09:47:59;100592.38;;;4.35;72.06
77106;BME280;66057;54.718;18.426;2023-01-31T09:50:39;100603.34;;;4.34;73.04
77106;BME280;66057;54.718;18.426;2023-01-31T09:53:11;100619.47;;;4.08;72.82
77106;BME280;66057;54.718;18.426;2023-01-31T10:04:22;100597.97;;;4.03;73.67
77106;BME280;66057;54.718;18.426;2023-01-31T10:06:57;100609.13;;;4.05;73.08
77106;BME280;66057;54.718;18.426;2023-01-31T10:09:35;100606.75;;;4.08;72.36
77106;BME280;66057;54.718;18.426;2023-01-31T10:12:13;100602.78;;;4.12;72.59
77106;BME280;66057;54.718;18.426;2023-01-31T10:14:46;100612.81;;;4.23;72.60
77106;BME280;66057;54.718;18.426;2023-01-31T10:20:02;100599.44;;;4.26;71.15
77106;BME280;66057;54.718;18.426;2023-01-31T10:22:35;100609.97;;;4.45;70.40
77106;BME280;66057;54.718;18.426;2023-01-31T10:25:27;100623.00;;;4.50;70.33
77106;BME280;66057;54.718;18.426;2023-01-31T10:28:08;100598.50;;;4.52;70.41
77106;BME280;66057;54.718;18.426;2023-01-31T10:30:43;100570.94;;;4.45;70.88
77106;BME280;66057;54.718;18.426;2023-01-31T10:36:20;100592.03;;;4.57;71.41
77106;BME280;66057;54.718;18.426;2023-01-31T10:39:11;100585.69;;;4.37;70.23
77106;BME280;66057;54.718;18.426;2023-01-31T10:41:59;100671.56;;;4.26;70.46
77106;BME280;66057;54.718;18.426;2023-01-31T10:47:32;100604.53;;;4.26;69.97
77106;BME280;66057;54.718;18.426;2023-01-31T10:50:00;100601.59;;;4.20;69.55
77106;BME280;66057;54.718;18.426;2023-01-31T10:53:04;100604.31;;;4.23;69.11
77106;BME280;66057;54.718;18.426;2023-01-31T10:56:04;100609.59;;;4.13;69.22
77106;BME280;66057;54.718;18.426;2023-01-31T10:58:30;100588.41;;;4.12;69.42
77106;BME280;66057;54.718;18.426;2023-01-31T11:00:57;100614.78;;;4.14;68.24
77106;BME280;66057;54.718;18.426;2023-01-31T11:03:23;100594.63;;;4.04;68.57
77106;BME280;66057;54.718;18.426;2023-01-31T11:05:52;100629.66;;;4.08;67.26
77106;BME280;66057;54.718;18.426;2023-01-31T11:08:25;100596.59;;;3.95;66.54
77106;BME280;66057;54.718;18.426;2023-01-31T11:10:54;100591.03;;;4.01;66.59
77106;BME280;66057;54.718;18.426;2023-01-31T11:13:21;100605.88;;;4.08;67.82
77106;BME280;66057;54.718;18.426;2023-01-31T11:15:51;100603.66;;;4.12;67.30
77106;BME280;66057;54.718;18.426;2023-01-31T11:18:27;100592.78;;;4.15;67.63
77106;BME280;66057;54.718;18.426;2023-01-31T11:20:54;100582.31;;;4.10;68.93
77106;BME280;66057;54.718;18.426;2023-01-31T11:23:23;100594.34;;;4.13;69.02
77106;BME280;66057;54.718;18.426;2023-01-31T11:25:52;100584.88;;;4.10;69.16
77106;BME280;66057;54.718;18.426;2023-01-31T11:28:22;100582.53;;;4.00;69.23
77106;BME280;66057;54.718;18.426;2023-01-31T11:30:51;100573.81;;;3.97;69.52
77106;BME280;66057;54.718;18.426;2023-01-31T11:33:39;100615.19;;;3.94;69.02
77106;BME280;66057;54.718;18.426;2023-01-31T11:36:07;100592.59;;;3.99;68.69
77106;BME280;66057;54.718;18.426;2023-01-31T11:38:33;100604.72;;;3.89;68.08
77106;BME280;66057;54.718;18.426;2023-01-31T11:40:59;100561.78;;;3.81;67.50
77106;BME280;66057;54.718;18.426;2023-01-31T11:43:29;100586.63;;;3.85;68.29
77106;BME280;66057;54.718;18.426;2023-01-31T11:45:57;100571.00;;;3.92;67.51
77106;BME280;66057;54.718;18.426;2023-01-31T11:48:26;100570.09;;;3.91;66.97
77106;BME280;66057;54.718;18.426;2023-01-31T11:50:55;100562.38;;;3.90;67.03
77106;BME280;66057;54.718;18.426;2023-01-31T11:55:57;100562.94;;;3.99;67.30
77106;BME280;66057;54.718;18.426;2023-01-31T11:58:35;100559.75;;;3.88;66.50
77106;BME280;66057;54.718;18.426;2023-01-31T12:01:11;100563.53;;;3.95;65.65
77106;BME280;66057;54.718;18.426;2023-01-31T12:03:39;100546.63;;;3.95;66.74
77106;BME280;66057;54.718;18.426;2023-01-31T12:06:34;100539.28;;;4.00;66.04
77106;BME280;66057;54.718;18.426;2023-01-31T12:09:02;100544.38;;;4.00;65.73
77106;BME280;66057;54.718;18.426;2023-01-31T12:11:31;100528.94;;;3.97;66.16
77106;BME280;66057;54.718;18.426;2023-01-31T12:16:27;100510.75;;;3.91;65.98
77106;BME280;66057;54.718;18.426;2023-01-31T12:22:09;100494.13;;;3.83;66.91
77106;BME280;66057;54.718;18.426;2023-01-31T12:38:31;100501.56;;;3.93;67.13
77106;BME280;66057;54.718;18.426;2023-01-31T12:52:02;100459.19;;;3.93;68.84
77106;BME280;66057;54.718;18.426;2023-01-31T12:55:02;100463.72;;;3.98;69.35
77106;BME280;66057;54.718;18.426;2023-01-31T12:57:34;100447.56;;;3.97;69.99
77106;BME280;66057;54.718;18.426;2023-01-31T13:08:24;100428.28;;;4.01;71.06
77106;BME280;66057;54.718;18.426;2023-01-31T13:11:08;100448.44;;;3.98;70.30
77106;BME280;66057;54.718;18.426;2023-01-31T13:13:52;100434.66;;;3.94;71.38
77106;BME280;66057;54.718;18.426;2023-01-31T13:16:25;100436.91;;;3.89;72.44
77106;BME280;66057;54.718;18.426;2023-01-31T13:18:55;100431.94;;;3.91;72.06
77106;BME280;66057;54.718;18.426;2023-01-31T13:21:27;100437.53;;;4.13;71.73
77106;BME280;66057;54.718;18.426;2023-01-31T13:24:02;100451.63;;;4.21;72.31
77106;BME280;66057;54.718;18.426;2023-01-31T13:26:58;100435.13;;;4.02;73.59
77106;BME280;66057;54.718;18.426;2023-01-31T13:29:27;100439.25;;;4.00;74.84
77106;BME280;66057;54.718;18.426;2023-01-31T13:31:59;100437.00;;;3.91;74.87
77106;BME280;66057;54.718;18.426;2023-01-31T13:34:47;100450.63;;;4.19;74.72
77106;BME280;66057;54.718;18.426;2023-01-31T13:37:15;100440.41;;;4.32;73.76
77106;BME280;66057;54.718;18.426;2023-01-31T13:40:18;100422.38;;;4.15;74.14
77106;BME280;66057;54.718;18.426;2023-01-31T13:42:45;100423.25;;;4.15;74.60
77106;BME280;66057;54.718;18.426;2023-01-31T13:45:22;100432.88;;;4.06;73.98
77106;BME280;66057;54.718;18.426;2023-01-31T13:48:01;100418.78;;;3.98;74.29
77106;BME280;66057;54.718;18.426;2023-01-31T13:50:45;100426.84;;;3.91;74.87
77106;BME280;66057;54.718;18.426;2023-01-31T13:53:20;100420.03;;;3.77;75.55
77106;BME280;66057;54.718;18.426;2023-01-31T13:55:49;100410.84;;;3.79;75.77
77106;BME280;66057;54.718;18.426;2023-01-31T13:58:26;100402.63;;;3.83;74.76
77106;BME280;66057;54.718;18.426;2023-01-31T14:09:35;100405.44;;;3.74;76.45
77106;BME280;66057;54.718;18.426;2023-01-31T14:14:49;100399.59;;;3.75;76.95
77106;BME280;66057;54.718;18.426;2023-01-31T14:22:42;100388.19;;;3.69;77.12
77106;BME280;66057;54.718;18.426;2023-01-31T14:25:41;100390.72;;;3.69;77.51
77106;BME280;66057;54.718;18.426;2023-01-31T14:28:09;100376.06;;;3.65;77.68
77106;BME280;66057;54.718;18.426;2023-01-31T14:30:39;100383.88;;;3.68;77.85
77106;BME280;66057;54.718;18.426;2023-01-31T14:33:15;100386.31;;;3.66;77.65
77106;BME280;66057;54.718;18.426;2023-01-31T14:36:51;100389.34;;;3.61;79.00
77106;BME280;66057;54.718;18.426;2023-01-31T14:38:51;100387.25;;;3.54;80.29
77106;BME280;66057;54.718;18.426;2023-01-31T14:57:16;100390.47;;;2.85;89.53
77106;BME280;66057;54.718;18.426;2023-01-31T14:59:57;100374.53;;;2.88;89.15
77106;BME280;66057;54.718;18.426;2023-01-31T15:07:31;100348.59;;;2.92;89.80
77106;BME280;66057;54.718;18.426;2023-01-31T15:09:57;100363.03;;;2.93;89.04
77106;BME280;66057;54.718;18.426;2023-01-31T15:12:52;100357.94;;;2.93;90.07
77106;BME280;66057;54.718;18.426;2023-01-31T15:15:39;100327.31;;;2.77;89.98